sensor_id;sensor_type;location;lat;lon;timestamp;P1;durP1;ratioP1;P2;durP2;ratioP2
53497;SDS011;39382;47.168;16.008;2022-07-23T00:00:52;6.97;;;5.72;;
53497;SDS011;39382;47.168;16.008;2022-07-23T00:03:18;6.57;;;5.20;;
53497;SDS011;39382;47.168;16.008;2022-07-23T00:05:44;6.93;;;5.65;;
53497;SDS011;39382;47.168;16.008;2022-07-23T00:08:09;7.50;;;5.35;;
53497;SDS011;39382;47.168;16.008;2022-07-23T00:10:35;6.20;;;5.60;;
53497;SDS011;39382;47.168;16.008;2022-07-23T00:13:01;8.02;;;5.25;;
53497;SDS011;39382;47.168;16.008;2022-07-23T00:15:27;6.95;;;5.57;;
53497;SDS011;39382;47.168;16.008;2022-07-23T00:17:52;6.95;;;6.07;;
53497;SDS011;39382;47.168;16.008;2022-07-23T00:20:18;12.10;;;5.38;;
53497;SDS011;39382;47.168;16.008;2022-07-23T00:22:47;6.80;;;5.95;;
53497;SDS011;39382;47.168;16.008;2022-07-23T00:27:46;6.55;;;5.22;;
53497;SDS011;39382;47.168;16.008;2022-07-23T00:30:12;6.22;;;5.15;;
53497;SDS011;39382;47.168;16.008;2022-07-23T00:32:45;6.20;;;5.43;;
53497;SDS011;39382;47.168;16.008;2022-07-23T00:35:11;5.80;;;5.28;;
53497;SDS011;39382;47.168;16.008;2022-07-23T00:37:36;8.85;;;5.82;;
53497;SDS011;39382;47.168;16.008;2022-07-23T00:40:02;8.45;;;5.13;;
53497;SDS011;39382;47.168;16.008;2022-07-23T00:42:28;6.13;;;5.28;;
53497;SDS011;39382;47.168;16.008;2022-07-23T00:44:56;6.70;;;5.82;;
53497;SDS011;39382;47.168;16.008;2022-07-23T00:47:22;7.45;;;6.00;;
53497;SDS011;39382;47.168;16.008;2022-07-23T00:49:48;5.72;;;5.13;;
53497;SDS011;39382;47.168;16.008;2022-07-23T00:52:13;7.78;;;5.50;;
53497;SDS011;39382;47.168;16.008;2022-07-23T00:54:39;7.63;;;6.00;;
53497;SDS011;39382;47.168;16.008;2022-07-23T00:57:05;6.18;;;5.03;;
53497;SDS011;39382;47.168;16.008;2022-07-23T00:59:31;5.18;;;4.60;;
53497;SDS011;39382;47.168;16.008;2022-07-23T01:01:56;5.90;;;5.30;;
53497;SDS011;39382;47.168;16.008;2022-07-23T01:04:22;7.03;;;5.40;;
53497;SDS011;39382;47.168;16.008;2022-07-23T01:06:48;6.93;;;5.63;;
53497;SDS011;39382;47.168;16.008;2022-07-23T01:09:13;6.97;;;6.18;;
53497;SDS011;39382;47.168;16.008;2022-07-23T01:11:39;6.68;;;5.78;;
53497;SDS011;39382;47.168;16.008;2022-07-23T01:14:10;6.50;;;5.68;;
53497;SDS011;39382;47.168;16.008;2022-07-23T01:16:41;8.40;;;6.13;;
53497;SDS011;39382;47.168;16.008;2022-07-23T01:19:08;7.63;;;6.03;;
53497;SDS011;39382;47.168;16.008;2022-07-23T01:21:35;8.52;;;5.90;;
53497;SDS011;39382;47.168;16.008;2022-07-23T01:24:02;8.30;;;5.80;;
53497;SDS011;39382;47.168;16.008;2022-07-23T01:26:29;7.85;;;5.43;;
53497;SDS011;39382;47.168;16.008;2022-07-23T01:28:55;5.40;;;4.72;;
53497;SDS011;39382;47.168;16.008;2022-07-23T01:31:20;5.53;;;4.95;;
53497;SDS011;39382;47.168;16.008;2022-07-23T01:33:46;8.77;;;5.32;;
53497;SDS011;39382;47.168;16.008;2022-07-23T01:36:12;6.03;;;5.15;;
53497;SDS011;39382;47.168;16.008;2022-07-23T01:38:37;7.70;;;6.00;;
53497;SDS011;39382;47.168;16.008;2022-07-23T01:41:03;7.22;;;6.22;;
53497;SDS011;39382;47.168;16.008;2022-07-23T01:43:29;8.43;;;6.13;;
53497;SDS011;39382;47.168;16.008;2022-07-23T01:45:54;6.60;;;5.63;;
53497;SDS011;39382;47.168;16.008;2022-07-23T01:48:20;6.93;;;5.75;;
53497;SDS011;39382;47.168;16.008;2022-07-23T01:50:46;6.07;;;5.47;;
53497;SDS011;39382;47.168;16.008;2022-07-23T01:53:12;7.32;;;5.97;;
53497;SDS011;39382;47.168;16.008;2022-07-23T01:55:39;6.82;;;6.13;;
53497;SDS011;39382;47.168;16.008;2022-07-23T01:58:04;9.45;;;5.85;;
53497;SDS011;39382;47.168;16.008;2022-07-23T02:00:30;6.53;;;5.63;;
53497;SDS011;39382;47.168;16.008;2022-07-23T02:02:56;7.53;;;5.82;;
53497;SDS011;39382;47.168;16.008;2022-07-23T02:05:23;9.60;;;5.57;;
53497;SDS011;39382;47.168;16.008;2022-07-23T02:07:50;6.68;;;5.70;;
53497;SDS011;39382;47.168;16.008;2022-07-23T02:10:16;6.93;;;6.28;;
53497;SDS011;39382;47.168;16.008;2022-07-23T02:12:42;7.32;;;5.63;;
53497;SDS011;39382;47.168;16.008;2022-07-23T02:15:08;6.97;;;6.28;;
53497;SDS011;39382;47.168;16.008;2022-07-23T02:17:33;6.13;;;5.60;;
53497;SDS011;39382;47.168;16.008;2022-07-23T02:19:59;5.95;;;5.40;;
53497;SDS011;39382;47.168;16.008;2022-07-23T02:22:25;6.43;;;5.82;;
53497;SDS011;39382;47.168;16.008;2022-07-23T02:24:50;8.43;;;6.05;;
53497;SDS011;39382;47.168;16.008;2022-07-23T02:27:16;6.60;;;5.95;;
53497;SDS011;39382;47.168;16.008;2022-07-23T02:29:42;12.00;;;6.55;;
53497;SDS011;39382;47.168;16.008;2022-07-23T02:32:07;7.25;;;6.25;;
53497;SDS011;39382;47.168;16.008;2022-07-23T02:34:33;10.57;;;6.63;;
53497;SDS011;39382;47.168;16.008;2022-07-23T02:36:58;5.88;;;5.30;;
53497;SDS011;39382;47.168;16.008;2022-07-23T02:39:24;7.28;;;5.20;;
53497;SDS011;39382;47.168;16.008;2022-07-23T02:41:50;6.40;;;5.22;;
53497;SDS011;39382;47.168;16.008;2022-07-23T02:44:16;6.65;;;4.75;;
53497;SDS011;39382;47.168;16.008;2022-07-23T02:46:41;8.88;;;5.63;;
53497;SDS011;39382;47.168;16.008;2022-07-23T02:49:07;6.13;;;5.35;;
53497;SDS011;39382;47.168;16.008;2022-07-23T02:51:33;7.43;;;4.53;;
53497;SDS011;39382;47.168;16.008;2022-07-23T02:53:58;6.53;;;5.88;;
53497;SDS011;39382;47.168;16.008;2022-07-23T02:56:24;5.72;;;4.78;;
53497;SDS011;39382;47.168;16.008;2022-07-23T02:58:50;8.18;;;5.25;;
53497;SDS011;39382;47.168;16.008;2022-07-23T03:01:15;7.10;;;5.80;;
53497;SDS011;39382;47.168;16.008;2022-07-23T03:03:41;6.80;;;5.88;;
53497;SDS011;39382;47.168;16.008;2022-07-23T03:06:07;6.38;;;5.50;;
53497;SDS011;39382;47.168;16.008;2022-07-23T03:08:32;7.35;;;5.10;;
53497;SDS011;39382;47.168;16.008;2022-07-23T03:10:58;5.82;;;4.90;;
53497;SDS011;39382;47.168;16.008;2022-07-23T03:13:24;5.65;;;5.05;;
53497;SDS011;39382;47.168;16.008;2022-07-23T03:15:49;7.35;;;6.47;;
53497;SDS011;39382;47.168;16.008;2022-07-23T03:18:15;7.93;;;5.80;;
53497;SDS011;39382;47.168;16.008;2022-07-23T03:20:41;11.13;;;5.82;;
53497;SDS011;39382;47.168;16.008;2022-07-23T03:23:06;6.93;;;5.32;;
53497;SDS011;39382;47.168;16.008;2022-07-23T03:25:32;7.82;;;5.75;;
53497;SDS011;39382;47.168;16.008;2022-07-23T03:27:58;6.65;;;5.80;;
53497;SDS011;39382;47.168;16.008;2022-07-23T03:30:23;6.45;;;5.30;;
53497;SDS011;39382;47.168;16.008;2022-07-23T03:32:49;7.65;;;5.35;;
53497;SDS011;39382;47.168;16.008;2022-07-23T03:35:14;5.65;;;4.90;;
53497;SDS011;39382;47.168;16.008;2022-07-23T03:37:40;9.15;;;5.90;;
53497;SDS011;39382;47.168;16.008;2022-07-23T03:40:06;6.70;;;5.85;;
53497;SDS011;39382;47.168;16.008;2022-07-23T03:42:32;7.70;;;6.22;;
53497;SDS011;39382;47.168;16.008;2022-07-23T03:44:58;9.00;;;6.05;;
53497;SDS011;39382;47.168;16.008;2022-07-23T03:47:24;6.45;;;5.68;;
53497;SDS011;39382;47.168;16.008;2022-07-23T03:49:49;6.45;;;5.60;;
53497;SDS011;39382;47.168;16.008;2022-07-23T03:52:15;8.75;;;5.07;;
53497;SDS011;39382;47.168;16.008;2022-07-23T03:54:41;5.68;;;5.07;;
53497;SDS011;39382;47.168;16.008;2022-07-23T03:57:06;8.57;;;6.25;;
53497;SDS011;39382;47.168;16.008;2022-07-23T03:59:32;7.13;;;5.28;;
53497;SDS011;39382;47.168;16.008;2022-07-23T04:01:58;5.43;;;4.93;;
53497;SDS011;39382;47.168;16.008;2022-07-23T04:04:24;9.90;;;5.63;;
53497;SDS011;39382;47.168;16.008;2022-07-23T04:06:49;8.40;;;5.13;;
53497;SDS011;39382;47.168;16.008;2022-07-23T04:09:15;5.80;;;5.20;;
53497;SDS011;39382;47.168;16.008;2022-07-23T04:11:40;7.07;;;5.57;;
53497;SDS011;39382;47.168;16.008;2022-07-23T04:14:06;7.85;;;5.07;;
53497;SDS011;39382;47.168;16.008;2022-07-23T04:16:32;7.85;;;6.28;;
53497;SDS011;39382;47.168;16.008;2022-07-23T04:18:58;6.22;;;5.53;;
53497;SDS011;39382;47.168;16.008;2022-07-23T04:21:23;8.43;;;5.38;;
53497;SDS011;39382;47.168;16.008;2022-07-23T04:23:49;8.38;;;5.82;;
53497;SDS011;39382;47.168;16.008;2022-07-23T04:26:15;6.18;;;5.25;;
53497;SDS011;39382;47.168;16.008;2022-07-23T04:28:41;6.68;;;5.28;;
53497;SDS011;39382;47.168;16.008;2022-07-23T04:31:07;6.20;;;5.57;;
53497;SDS011;39382;47.168;16.008;2022-07-23T04:33:33;6.05;;;5.35;;
53497;SDS011;39382;47.168;16.008;2022-07-23T04:35:59;6.00;;;5.20;;
53497;SDS011;39382;47.168;16.008;2022-07-23T04:38:24;6.80;;;5.68;;
53497;SDS011;39382;47.168;16.008;2022-07-23T04:40:50;5.70;;;5.10;;
53497;SDS011;39382;47.168;16.008;2022-07-23T04:43:15;6.18;;;5.57;;
53497;SDS011;39382;47.168;16.008;2022-07-23T04:45:41;6.55;;;5.70;;
53497;SDS011;39382;47.168;16.008;2022-07-23T04:48:07;6.70;;;6.07;;
53497;SDS011;39382;47.168;16.008;2022-07-23T04:50:32;7.43;;;5.47;;
53497;SDS011;39382;47.168;16.008;2022-07-23T04:52:58;7.15;;;6.45;;
53497;SDS011;39382;47.168;16.008;2022-07-23T04:55:24;7.97;;;6.25;;
53497;SDS011;39382;47.168;16.008;2022-07-23T04:57:49;9.27;;;6.05;;
53497;SDS011;39382;47.168;16.008;2022-07-23T05:00:15;12.20;;;7.47;;
53497;SDS011;39382;47.168;16.008;2022-07-23T05:02:41;9.93;;;6.03;;
53497;SDS011;39382;47.168;16.008;2022-07-23T05:05:08;7.45;;;6.68;;
53497;SDS011;39382;47.168;16.008;2022-07-23T05:07:33;11.82;;;5.70;;
53497;SDS011;39382;47.168;16.008;2022-07-23T05:09:59;9.80;;;5.70;;
53497;SDS011;39382;47.168;16.008;2022-07-23T05:12:25;7.85;;;6.50;;
53497;SDS011;39382;47.168;16.008;2022-07-23T05:14:50;6.53;;;5.35;;
53497;SDS011;39382;47.168;16.008;2022-07-23T05:17:17;24.08;;;12.43;;
53497;SDS011;39382;47.168;16.008;2022-07-23T05:19:43;19.15;;;12.15;;
53497;SDS011;39382;47.168;16.008;2022-07-23T05:22:09;13.60;;;7.90;;
53497;SDS011;39382;47.168;16.008;2022-07-23T05:24:34;7.50;;;6.80;;
53497;SDS011;39382;47.168;16.008;2022-07-23T05:27:00;8.77;;;6.22;;
53497;SDS011;39382;47.168;16.008;2022-07-23T05:29:26;8.90;;;6.63;;
53497;SDS011;39382;47.168;16.008;2022-07-23T05:31:51;7.55;;;6.80;;
53497;SDS011;39382;47.168;16.008;2022-07-23T05:34:17;7.88;;;6.18;;
53497;SDS011;39382;47.168;16.008;2022-07-23T05:36:42;11.32;;;7.90;;
53497;SDS011;39382;47.168;16.008;2022-07-23T05:39:08;8.27;;;7.47;;
53497;SDS011;39382;47.168;16.008;2022-07-23T05:41:34;9.73;;;6.55;;
53497;SDS011;39382;47.168;16.008;2022-07-23T05:43:59;7.28;;;6.28;;
53497;SDS011;39382;47.168;16.008;2022-07-23T05:46:25;5.93;;;5.38;;
53497;SDS011;39382;47.168;16.008;2022-07-23T05:48:51;6.85;;;5.18;;
53497;SDS011;39382;47.168;16.008;2022-07-23T05:51:23;7.00;;;5.72;;
53497;SDS011;39382;47.168;16.008;2022-07-23T05:53:49;6.40;;;5.45;;
53497;SDS011;39382;47.168;16.008;2022-07-23T05:56:15;6.90;;;5.57;;
53497;SDS011;39382;47.168;16.008;2022-07-23T05:58:42;5.72;;;5.18;;
53497;SDS011;39382;47.168;16.008;2022-07-23T06:01:08;7.45;;;6.28;;
53497;SDS011;39382;47.168;16.008;2022-07-23T06:03:34;7.40;;;6.07;;
53497;SDS011;39382;47.168;16.008;2022-07-23T06:05:59;12.23;;;6.28;;
53497;SDS011;39382;47.168;16.008;2022-07-23T06:08:25;7.13;;;4.95;;
53497;SDS011;39382;47.168;16.008;2022-07-23T06:10:51;6.60;;;5.38;;
53497;SDS011;39382;47.168;16.008;2022-07-23T06:13:19;6.45;;;4.88;;
53497;SDS011;39382;47.168;16.008;2022-07-23T06:15:45;5.00;;;4.50;;
53497;SDS011;39382;47.168;16.008;2022-07-23T06:18:11;5.20;;;4.70;;
53497;SDS011;39382;47.168;16.008;2022-07-23T06:20:37;6.88;;;5.38;;
53497;SDS011;39382;47.168;16.008;2022-07-23T06:23:03;5.57;;;4.35;;
53497;SDS011;39382;47.168;16.008;2022-07-23T06:25:29;11.10;;;7.65;;
53497;SDS011;39382;47.168;16.008;2022-07-23T06:27:54;5.40;;;4.90;;
53497;SDS011;39382;47.168;16.008;2022-07-23T06:30:20;6.53;;;4.80;;
53497;SDS011;39382;47.168;16.008;2022-07-23T06:32:46;8.27;;;6.30;;
53497;SDS011;39382;47.168;16.008;2022-07-23T06:35:12;8.25;;;5.72;;
53497;SDS011;39382;47.168;16.008;2022-07-23T06:37:38;7.57;;;4.80;;
53497;SDS011;39382;47.168;16.008;2022-07-23T06:40:04;6.72;;;5.07;;
53497;SDS011;39382;47.168;16.008;2022-07-23T06:42:30;5.55;;;5.05;;
53497;SDS011;39382;47.168;16.008;2022-07-23T06:44:56;8.40;;;5.13;;
53497;SDS011;39382;47.168;16.008;2022-07-23T06:47:21;7.43;;;5.32;;
53497;SDS011;39382;47.168;16.008;2022-07-23T06:49:47;6.63;;;5.57;;
53497;SDS011;39382;47.168;16.008;2022-07-23T06:52:12;8.20;;;4.45;;
53497;SDS011;39382;47.168;16.008;2022-07-23T06:54:38;6.45;;;5.45;;
53497;SDS011;39382;47.168;16.008;2022-07-23T06:57:04;7.70;;;5.22;;
53497;SDS011;39382;47.168;16.008;2022-07-23T06:59:30;7.45;;;5.25;;
53497;SDS011;39382;47.168;16.008;2022-07-23T07:01:55;6.18;;;5.57;;
53497;SDS011;39382;47.168;16.008;2022-07-23T07:04:23;5.63;;;5.10;;
53497;SDS011;39382;47.168;16.008;2022-07-23T07:06:48;5.70;;;5.13;;
53497;SDS011;39382;47.168;16.008;2022-07-23T07:09:14;5.97;;;5.13;;
53497;SDS011;39382;47.168;16.008;2022-07-23T07:11:40;7.20;;;5.32;;
53497;SDS011;39382;47.168;16.008;2022-07-23T07:14:05;5.57;;;4.65;;
53497;SDS011;39382;47.168;16.008;2022-07-23T07:16:31;7.25;;;5.18;;
53497;SDS011;39382;47.168;16.008;2022-07-23T07:18:57;7.38;;;5.00;;
53497;SDS011;39382;47.168;16.008;2022-07-23T07:21:23;4.78;;;4.38;;
53497;SDS011;39382;47.168;16.008;2022-07-23T07:23:48;5.95;;;4.63;;
53497;SDS011;39382;47.168;16.008;2022-07-23T07:26:14;8.13;;;5.78;;
53497;SDS011;39382;47.168;16.008;2022-07-23T07:28:40;7.78;;;4.63;;
53497;SDS011;39382;47.168;16.008;2022-07-23T07:31:05;8.65;;;5.32;;
53497;SDS011;39382;47.168;16.008;2022-07-23T07:33:31;9.57;;;4.85;;
53497;SDS011;39382;47.168;16.008;2022-07-23T07:35:57;5.22;;;4.72;;
53497;SDS011;39382;47.168;16.008;2022-07-23T07:38:23;5.00;;;4.43;;
53497;SDS011;39382;47.168;16.008;2022-07-23T07:40:49;5.07;;;4.57;;
53497;SDS011;39382;47.168;16.008;2022-07-23T07:43:15;5.28;;;4.35;;
53497;SDS011;39382;47.168;16.008;2022-07-23T07:45:40;5.43;;;3.80;;
53497;SDS011;39382;47.168;16.008;2022-07-23T07:48:06;7.40;;;3.58;;
53497;SDS011;39382;47.168;16.008;2022-07-23T07:50:32;4.07;;;3.67;;
53497;SDS011;39382;47.168;16.008;2022-07-23T07:52:58;4.43;;;4.10;;
53497;SDS011;39382;47.168;16.008;2022-07-23T07:55:23;6.45;;;3.80;;
53497;SDS011;39382;47.168;16.008;2022-07-23T07:57:49;4.38;;;3.72;;
53497;SDS011;39382;47.168;16.008;2022-07-23T08:00:15;6.63;;;4.22;;
53497;SDS011;39382;47.168;16.008;2022-07-23T08:02:46;4.55;;;4.15;;
53497;SDS011;39382;47.168;16.008;2022-07-23T08:05:13;4.20;;;3.67;;
53497;SDS011;39382;47.168;16.008;2022-07-23T08:07:39;4.63;;;4.20;;
53497;SDS011;39382;47.168;16.008;2022-07-23T08:10:06;4.35;;;3.85;;
53497;SDS011;39382;47.168;16.008;2022-07-23T08:12:40;6.13;;;4.60;;
53497;SDS011;39382;47.168;16.008;2022-07-23T08:15:07;4.27;;;3.87;;
53497;SDS011;39382;47.168;16.008;2022-07-23T08:17:34;4.70;;;4.05;;
53497;SDS011;39382;47.168;16.008;2022-07-23T08:20:00;4.20;;;3.80;;
53497;SDS011;39382;47.168;16.008;2022-07-23T08:22:30;3.72;;;3.42;;
53497;SDS011;39382;47.168;16.008;2022-07-23T08:25:24;6.55;;;4.05;;
53497;SDS011;39382;47.168;16.008;2022-07-23T08:27:51;4.32;;;3.88;;
53497;SDS011;39382;47.168;16.008;2022-07-23T08:30:18;3.88;;;3.58;;
53497;SDS011;39382;47.168;16.008;2022-07-23T08:33:00;4.05;;;3.75;;
53497;SDS011;39382;47.168;16.008;2022-07-23T08:36:09;5.68;;;4.07;;
53497;SDS011;39382;47.168;16.008;2022-07-23T08:38:28;4.65;;;4.15;;
53497;SDS011;39382;47.168;16.008;2022-07-23T08:40:54;4.68;;;3.70;;
53497;SDS011;39382;47.168;16.008;2022-07-23T08:43:29;3.88;;;3.53;;
53497;SDS011;39382;47.168;16.008;2022-07-23T08:45:56;3.60;;;3.25;;
53497;SDS011;39382;47.168;16.008;2022-07-23T08:48:33;5.07;;;4.07;;
53497;SDS011;39382;47.168;16.008;2022-07-23T08:51:02;4.50;;;4.03;;
53497;SDS011;39382;47.168;16.008;2022-07-23T08:53:29;4.80;;;3.72;;
53497;SDS011;39382;47.168;16.008;2022-07-23T08:55:57;5.88;;;3.78;;
53497;SDS011;39382;47.168;16.008;2022-07-23T08:58:26;3.67;;;3.38;;
53497;SDS011;39382;47.168;16.008;2022-07-23T09:00:52;4.68;;;3.88;;
53497;SDS011;39382;47.168;16.008;2022-07-23T09:03:22;4.60;;;3.70;;
53497;SDS011;39382;47.168;16.008;2022-07-23T09:05:56;4.68;;;4.07;;
53497;SDS011;39382;47.168;16.008;2022-07-23T09:08:27;3.72;;;3.33;;
53497;SDS011;39382;47.168;16.008;2022-07-23T09:11:04;3.88;;;3.58;;
53497;SDS011;39382;47.168;16.008;2022-07-23T09:18:33;6.63;;;3.78;;
53497;SDS011;39382;47.168;16.008;2022-07-23T09:23:56;4.18;;;3.70;;
53497;SDS011;39382;47.168;16.008;2022-07-23T09:26:36;5.20;;;3.60;;
53497;SDS011;39382;47.168;16.008;2022-07-23T09:36:52;3.92;;;3.35;;
53497;SDS011;39382;47.168;16.008;2022-07-23T09:41:52;4.55;;;3.47;;
53497;SDS011;39382;47.168;16.008;2022-07-23T09:44:18;4.53;;;4.13;;
53497;SDS011;39382;47.168;16.008;2022-07-23T09:46:48;7.28;;;4.38;;
53497;SDS011;39382;47.168;16.008;2022-07-23T09:49:16;6.00;;;3.70;;
53497;SDS011;39382;47.168;16.008;2022-07-23T09:51:50;3.92;;;3.63;;
53497;SDS011;39382;47.168;16.008;2022-07-23T09:54:31;6.30;;;3.72;;
53497;SDS011;39382;47.168;16.008;2022-07-23T09:57:11;4.35;;;3.78;;
53497;SDS011;39382;47.168;16.008;2022-07-23T09:59:41;3.88;;;3.47;;
53497;SDS011;39382;47.168;16.008;2022-07-23T10:02:09;5.00;;;3.13;;
53497;SDS011;39382;47.168;16.008;2022-07-23T10:04:37;4.70;;;3.85;;
53497;SDS011;39382;47.168;16.008;2022-07-23T10:07:04;4.10;;;3.80;;
53497;SDS011;39382;47.168;16.008;2022-07-23T10:09:34;6.80;;;4.35;;
53497;SDS011;39382;47.168;16.008;2022-07-23T10:12:20;5.53;;;4.25;;
53497;SDS011;39382;47.168;16.008;2022-07-23T10:14:58;6.07;;;4.00;;
53497;SDS011;39382;47.168;16.008;2022-07-23T10:17:25;3.95;;;3.53;;
53497;SDS011;39382;47.168;16.008;2022-07-23T10:19:52;3.95;;;3.55;;
53497;SDS011;39382;47.168;16.008;2022-07-23T10:22:25;3.83;;;3.50;;
53497;SDS011;39382;47.168;16.008;2022-07-23T10:25:12;4.78;;;3.50;;
53497;SDS011;39382;47.168;16.008;2022-07-23T10:36:20;7.22;;;4.03;;
53497;SDS011;39382;47.168;16.008;2022-07-23T10:39:15;3.65;;;3.00;;
53497;SDS011;39382;47.168;16.008;2022-07-23T10:42:08;4.03;;;3.55;;
53497;SDS011;39382;47.168;16.008;2022-07-23T10:44:42;4.30;;;3.90;;
53497;SDS011;39382;47.168;16.008;2022-07-23T10:47:10;3.72;;;3.42;;
53497;SDS011;39382;47.168;16.008;2022-07-23T10:50:16;5.93;;;3.65;;
53497;SDS011;39382;47.168;16.008;2022-07-23T10:58:04;6.78;;;3.80;;
53497;SDS011;39382;47.168;16.008;2022-07-23T11:00:31;5.28;;;3.90;;
53497;SDS011;39382;47.168;16.008;2022-07-23T11:02:59;4.20;;;3.55;;
53497;SDS011;39382;47.168;16.008;2022-07-23T11:05:39;4.00;;;3.60;;
53497;SDS011;39382;47.168;16.008;2022-07-23T11:24:07;4.57;;;4.18;;
53497;SDS011;39382;47.168;16.008;2022-07-23T11:26:50;4.32;;;3.90;;
53497;SDS011;39382;47.168;16.008;2022-07-23T11:31:57;4.28;;;3.88;;
53497;SDS011;39382;47.168;16.008;2022-07-23T11:39:27;7.70;;;3.80;;
53497;SDS011;39382;47.168;16.008;2022-07-23T11:41:53;4.32;;;4.00;;
53497;SDS011;39382;47.168;16.008;2022-07-23T11:44:26;6.32;;;3.97;;
53497;SDS011;39382;47.168;16.008;2022-07-23T11:46:54;5.25;;;3.83;;
53497;SDS011;39382;47.168;16.008;2022-07-23T11:49:28;4.10;;;3.60;;
53497;SDS011;39382;47.168;16.008;2022-07-23T11:54:34;4.28;;;3.30;;
53497;SDS011;39382;47.168;16.008;2022-07-23T11:57:01;5.60;;;3.85;;
53497;SDS011;39382;47.168;16.008;2022-07-23T11:59:29;5.03;;;4.35;;
53497;SDS011;39382;47.168;16.008;2022-07-23T12:02:02;4.53;;;3.95;;
53497;SDS011;39382;47.168;16.008;2022-07-23T12:04:39;10.18;;;3.90;;
53497;SDS011;39382;47.168;16.008;2022-07-23T12:10:03;4.82;;;3.70;;
53497;SDS011;39382;47.168;16.008;2022-07-23T12:12:38;8.32;;;3.85;;
53497;SDS011;39382;47.168;16.008;2022-07-23T12:15:05;7.63;;;3.45;;
53497;SDS011;39382;47.168;16.008;2022-07-23T12:17:33;5.22;;;3.53;;
53497;SDS011;39382;47.168;16.008;2022-07-23T12:20:02;6.20;;;4.25;;
53497;SDS011;39382;47.168;16.008;2022-07-23T12:22:43;4.20;;;3.72;;
53497;SDS011;39382;47.168;16.008;2022-07-23T12:25:18;5.63;;;4.30;;
53497;SDS011;39382;47.168;16.008;2022-07-23T12:27:45;4.30;;;3.90;;
53497;SDS011;39382;47.168;16.008;2022-07-23T12:30:28;3.42;;;3.22;;
53497;SDS011;39382;47.168;16.008;2022-07-23T12:33:09;4.38;;;3.97;;
53497;SDS011;39382;47.168;16.008;2022-07-23T12:35:55;8.15;;;4.47;;
53497;SDS011;39382;47.168;16.008;2022-07-23T12:38:23;4.43;;;4.03;;
53497;SDS011;39382;47.168;16.008;2022-07-23T12:40:52;9.30;;;3.95;;
53497;SDS011;39382;47.168;16.008;2022-07-23T12:45:52;4.53;;;4.00;;
53497;SDS011;39382;47.168;16.008;2022-07-23T12:48:27;4.47;;;3.65;;
53497;SDS011;39382;47.168;16.008;2022-07-23T12:50:57;5.18;;;4.38;;
53497;SDS011;39382;47.168;16.008;2022-07-23T12:53:43;4.95;;;3.70;;
53497;SDS011;39382;47.168;16.008;2022-07-23T13:06:27;5.20;;;4.70;;
53497;SDS011;39382;47.168;16.008;2022-07-23T13:08:58;4.53;;;4.13;;
53497;SDS011;39382;47.168;16.008;2022-07-23T13:11:24;4.78;;;4.32;;
53497;SDS011;39382;47.168;16.008;2022-07-23T13:13:50;4.40;;;4.00;;
53497;SDS011;39382;47.168;16.008;2022-07-23T13:16:15;4.82;;;4.20;;
53497;SDS011;39382;47.168;16.008;2022-07-23T13:18:41;4.60;;;4.20;;
53497;SDS011;39382;47.168;16.008;2022-07-23T13:21:07;4.82;;;4.25;;
53497;SDS011;39382;47.168;16.008;2022-07-23T13:23:36;8.65;;;4.35;;
53497;SDS011;39382;47.168;16.008;2022-07-23T13:26:02;4.43;;;4.05;;
53497;SDS011;39382;47.168;16.008;2022-07-23T13:28:29;4.95;;;3.97;;
53497;SDS011;39382;47.168;16.008;2022-07-23T13:30:55;4.70;;;4.30;;
53497;SDS011;39382;47.168;16.008;2022-07-23T13:33:22;4.78;;;4.38;;
53497;SDS011;39382;47.168;16.008;2022-07-23T13:35:49;5.25;;;4.75;;
53497;SDS011;39382;47.168;16.008;2022-07-23T13:38:17;4.93;;;4.05;;
53497;SDS011;39382;47.168;16.008;2022-07-23T13:40:45;5.07;;;4.57;;
53497;SDS011;39382;47.168;16.008;2022-07-23T13:43:14;5.90;;;4.30;;
53497;SDS011;39382;47.168;16.008;2022-07-23T13:45:41;5.50;;;4.13;;
53497;SDS011;39382;47.168;16.008;2022-07-23T13:48:08;7.65;;;4.35;;
53497;SDS011;39382;47.168;16.008;2022-07-23T13:50:35;5.55;;;4.68;;
53497;SDS011;39382;47.168;16.008;2022-07-23T13:53:02;3.80;;;3.50;;
53497;SDS011;39382;47.168;16.008;2022-07-23T13:55:32;7.35;;;3.83;;
53497;SDS011;39382;47.168;16.008;2022-07-23T13:57:59;4.20;;;3.80;;
53497;SDS011;39382;47.168;16.008;2022-07-23T14:00:25;4.82;;;3.47;;
53497;SDS011;39382;47.168;16.008;2022-07-23T14:02:51;3.70;;;3.40;;
53497;SDS011;39382;47.168;16.008;2022-07-23T14:05:17;4.15;;;3.63;;
53497;SDS011;39382;47.168;16.008;2022-07-23T14:07:43;3.70;;;3.40;;
53497;SDS011;39382;47.168;16.008;2022-07-23T14:10:09;3.90;;;3.38;;
53497;SDS011;39382;47.168;16.008;2022-07-23T14:12:35;5.43;;;3.47;;
53497;SDS011;39382;47.168;16.008;2022-07-23T14:15:02;4.60;;;2.97;;
53497;SDS011;39382;47.168;16.008;2022-07-23T14:17:29;5.97;;;4.05;;
53497;SDS011;39382;47.168;16.008;2022-07-23T14:19:56;4.40;;;3.38;;
53497;SDS011;39382;47.168;16.008;2022-07-23T14:22:22;3.80;;;3.50;;
53497;SDS011;39382;47.168;16.008;2022-07-23T14:24:48;8.00;;;3.58;;
53497;SDS011;39382;47.168;16.008;2022-07-23T14:27:14;3.70;;;3.33;;
53497;SDS011;39382;47.168;16.008;2022-07-23T14:29:40;3.80;;;3.13;;
53497;SDS011;39382;47.168;16.008;2022-07-23T14:32:05;4.13;;;3.40;;
53497;SDS011;39382;47.168;16.008;2022-07-23T14:34:31;4.07;;;3.20;;
53497;SDS011;39382;47.168;16.008;2022-07-23T14:36:57;3.92;;;3.28;;
53497;SDS011;39382;47.168;16.008;2022-07-23T14:39:24;3.22;;;2.90;;
53497;SDS011;39382;47.168;16.008;2022-07-23T14:41:50;7.13;;;2.90;;
53497;SDS011;39382;47.168;16.008;2022-07-23T14:44:16;6.18;;;2.65;;
53497;SDS011;39382;47.168;16.008;2022-07-23T14:46:42;5.70;;;3.05;;
53497;SDS011;39382;47.168;16.008;2022-07-23T14:49:08;3.30;;;3.00;;
53497;SDS011;39382;47.168;16.008;2022-07-23T14:51:33;3.95;;;3.58;;
53497;SDS011;39382;47.168;16.008;2022-07-23T14:53:59;4.15;;;3.85;;
53497;SDS011;39382;47.168;16.008;2022-07-23T14:56:25;4.88;;;3.72;;
53497;SDS011;39382;47.168;16.008;2022-07-23T14:58:51;3.78;;;3.35;;
53497;SDS011;39382;47.168;16.008;2022-07-23T15:01:16;3.65;;;3.30;;
53497;SDS011;39382;47.168;16.008;2022-07-23T15:03:42;3.75;;;3.00;;
53497;SDS011;39382;47.168;16.008;2022-07-23T15:06:08;3.53;;;2.58;;
53497;SDS011;39382;47.168;16.008;2022-07-23T15:08:34;3.47;;;2.45;;
53497;SDS011;39382;47.168;16.008;2022-07-23T15:10:59;2.60;;;2.40;;
53497;SDS011;39382;47.168;16.008;2022-07-23T15:13:25;4.25;;;3.10;;
53497;SDS011;39382;47.168;16.008;2022-07-23T15:15:51;2.78;;;2.58;;
53497;SDS011;39382;47.168;16.008;2022-07-23T15:18:16;2.95;;;2.55;;
53497;SDS011;39382;47.168;16.008;2022-07-23T15:20:42;3.03;;;2.72;;
53497;SDS011;39382;47.168;16.008;2022-07-23T15:23:08;3.65;;;3.05;;
53497;SDS011;39382;47.168;16.008;2022-07-23T15:25:34;3.25;;;2.55;;
53497;SDS011;39382;47.168;16.008;2022-07-23T15:28:00;4.95;;;2.70;;
53497;SDS011;39382;47.168;16.008;2022-07-23T15:30:26;7.05;;;3.15;;
53497;SDS011;39382;47.168;16.008;2022-07-23T15:32:52;3.50;;;2.97;;
53497;SDS011;39382;47.168;16.008;2022-07-23T15:35:18;4.88;;;3.22;;
53497;SDS011;39382;47.168;16.008;2022-07-23T15:37:44;4.05;;;3.58;;
53497;SDS011;39382;47.168;16.008;2022-07-23T15:40:11;3.25;;;2.95;;
53497;SDS011;39382;47.168;16.008;2022-07-23T15:42:37;4.97;;;2.60;;
53497;SDS011;39382;47.168;16.008;2022-07-23T15:45:03;5.18;;;3.55;;
53497;SDS011;39382;47.168;16.008;2022-07-23T15:47:30;3.47;;;3.15;;
53497;SDS011;39382;47.168;16.008;2022-07-23T15:49:56;3.38;;;3.08;;
53497;SDS011;39382;47.168;16.008;2022-07-23T15:52:22;3.50;;;2.97;;